Time;durP1;ratioP1;P1;durP2;ratioP2;P2;SDS_P1;SDS_P2;PMS_P1;PMS_P2;Temp;Humidity;BMP_temperature;BMP_pressure;BME280_temperature;BME280_humidity;BME280_pressure;Samples;Min_cycle;Max_cycle;Signal;HPM_P1;HPM_P2
2021/05/17 00:01:31;;;;;;;5.83;3.03;;;;;;;18.01;50.85;98532.66;129921;1101;23539;-59
2021/05/17 00:04:06;;;;;;;;;;;;;;;17.99;51.55;98535.73;129983;1101;22539;-59
2021/05/17 00:06:35;;;;;;;6.45;3.05;;;;;;;17.99;51.42;98534.92;129912;1101;21287;-59
2021/05/17 00:09:06;;;;;;;4.63;2.60;;;;;;;17.98;51.25;98527.80;129948;1101;22556;-60
2021/05/17 00:11:35;;;;;;;6.50;2.78;;;;;;;17.96;51.46;98525.37;129911;1101;22684;-59
2021/05/17 00:14:06;;;;;;;3.90;2.60;;;;;;;17.96;51.33;98521.80;129939;1101;22577;-60
2021/05/17 00:16:39;;;;;;;4.83;2.98;;;;;;;17.94;52.06;98524.08;129942;1101;22734;-59
2021/05/17 00:19:13;;;;;;;5.25;3.20;;;;;;;17.90;51.70;98510.14;129935;1101;22566;-59
2021/05/17 00:21:41;;;;;;;4.20;2.70;;;;;;;17.90;52.64;98512.09;129935;1101;22674;-59
2021/05/17 00:24:11;;;;;;;4.05;2.95;;;;;;;17.86;54.03;98511.96;129971;1101;22787;-60
2021/05/17 00:26:39;;;;;;;5.43;2.83;;;;;;;17.81;55.35;98509.38;129954;1101;23247;-60
2021/05/17 00:29:11;;;;;;;3.98;2.85;;;;;;;17.73;55.29;98509.42;129896;1101;22585;-60
2021/05/17 00:31:40;;;;;;;6.98;3.20;;;;;;;17.63;55.34;98502.27;129636;1104;24013;-60
2021/05/17 00:34:09;;;;;;;5.43;2.95;;;;;;;17.60;55.83;98512.00;129931;1101;22603;-60
2021/05/17 00:36:39;;;;;;;6.65;3.33;;;;;;;17.56;56.21;98500.04;129697;1102;22571;-60
2021/05/17 00:39:10;;;;;;;3.65;3.00;;;;;;;17.50;56.14;98519.81;129673;1103;23287;-58
2021/05/17 00:41:39;;;;;;;5.38;3.33;;;;;;;17.41;56.65;98511.58;129980;1101;22560;-58
2021/05/17 00:44:08;;;;;;;5.05;3.10;;;;;;;17.36;57.11;98502.67;129946;1101;22556;-58
2021/05/17 00:46:36;;;;;;;5.95;3.18;;;;;;;17.29;57.15;98495.73;129971;1101;22677;-58
2021/05/17 00:49:05;;;;;;;8.58;3.40;;;;;;;17.24;57.58;98506.10;129695;1102;22551;-56
2021/05/17 00:51:35;;;;;;;7.38;3.60;;;;;;;17.18;57.80;98497.19;129929;1101;22758;-58
2021/05/17 00:54:04;;;;;;;5.40;3.30;;;;;;;17.14;57.87;98514.70;129669;1102;22686;-57
2021/05/17 00:56:34;;;;;;;5.75;3.75;;;;;;;17.11;58.09;98507.09;129964;1101;22721;-57
2021/05/17 00:59:03;;;;;;;4.65;3.20;;;;;;;17.07;58.60;98503.36;129559;1102;23690;-57
2021/05/17 01:01:32;;;;;;;6.73;3.58;;;;;;;17.02;58.59;98501.61;129984;1101;22692;-57
2021/05/17 01:04:01;;;;;;;5.53;3.58;;;;;;;16.98;58.45;98502.58;129678;1101;22679;-56
2021/05/17 01:06:35;;;;;;;4.88;3.83;;;;;;;16.95;59.15;98496.58;129952;1101;22658;-58
2021/05/17 01:09:08;;;;;;;12.20;4.38;;;;;;;16.91;59.08;98487.35;129689;1101;23436;-57
2021/05/17 01:11:59;;;;;;;10.98;5.08;;;;;;;16.86;58.19;98486.72;129961;1101;23013;-57
2021/05/17 01:14:27;;;;;;;11.55;6.23;;;;;;;16.85;58.56;98485.91;129915;1101;22633;-57
2021/05/17 01:16:56;;;;;;;9.60;5.00;;;;;;;16.84;57.85;98483.48;129717;1102;22611;-57
2021/05/17 01:19:42;;;;;;;11.15;5.00;;;;;;;16.85;58.56;98479.60;129709;1102;22737;-57
2021/05/17 01:22:21;;;;;;;9.40;5.35;;;;;;;16.85;58.87;98479.60;129944;1101;22520;-57
2021/05/17 01:24:50;;;;;;;10.58;4.83;;;;;;;16.85;59.02;98490.61;129616;1104;22582;-57
2021/05/17 01:27:19;;;;;;;8.00;5.00;;;;;;;16.81;59.61;98495.94;129666;1104;23590;-57
2021/05/17 01:29:47;;;;;;;12.30;6.10;;;;;;;16.79;59.86;98487.20;129624;1104;23377;-57
2021/05/17 01:32:17;;;;;;;9.60;6.15;;;;;;;16.76;60.69;98496.09;129719;1101;22776;-57
2021/05/17 01:34:45;;;;;;;10.83;5.45;;;;;;;16.72;61.75;98500.64;129899;1101;23220;-57
2021/05/17 01:37:14;;;;;;;12.38;5.35;;;;;;;16.69;61.77;98509.53;130002;1101;22618;-57
2021/05/17 01:39:43;;;;;;;6.60;5.13;;;;;;;16.65;61.46;98508.55;128460;1096;22899;-56
2021/05/17 01:42:13;;;;;;;10.15;5.10;;;;;;;16.63;61.90;98512.75;125420;1101;22775;-55
2021/05/17 01:44:42;;;;;;;9.23;5.50;;;;;;;16.60;61.97;98492.98;129713;1102;22995;-56
2021/05/17 01:47:10;;;;;;;10.95;5.45;;;;;;;16.59;61.23;98494.11;129685;1103;22633;-57
2021/05/17 01:49:39;;;;;;;10.03;5.60;;;;;;;16.58;61.36;98484.27;129747;1102;23260;-58
2021/05/17 01:52:08;;;;;;;12.15;5.15;;;;;;;16.58;61.08;98494.45;129639;1104;22598;-58
2021/05/17 01:54:41;;;;;;;10.70;5.05;;;;;;;16.57;61.42;98512.89;129719;1101;22568;-58
2021/05/17 01:57:09;;;;;;;9.53;5.08;;;;;;;16.56;61.68;98522.27;129675;1101;22585;-58
2021/05/17 01:59:38;;;;;;;10.48;4.88;;;;;;;16.56;62.28;98521.46;129763;1101;22578;-58
2021/05/17 02:02:07;;;;;;;14.15;5.68;;;;;;;16.53;62.88;98520.16;129909;1101;22697;-58
2021/05/17 02:04:37;;;;;;;10.38;5.23;;;;;;;16.52;63.41;98526.79;129934;1101;23613;-57
2021/05/17 02:07:05;;;;;;;8.38;4.65;;;;;;;16.48;64.35;98531.30;129676;1102;23395;-57
2021/05/17 02:09:37;;;;;;;12.43;6.08;;;;;;;16.44;65.16;98530.34;129708;1104;22683;-57
2021/05/17 02:12:07;;;;;;;7.80;5.18;;;;;;;16.40;65.58;98529.36;129903;1101;23283;-58
2021/05/17 02:14:54;;;;;;;9.10;5.80;;;;;;;16.37;65.96;98515.44;129767;1101;22626;-57
2021/05/17 02:17:25;;;;;;;18.13;6.10;;;;;;;16.33;66.87;98511.70;129938;1101;23784;-57
2021/05/17 02:19:54;;;;;;;13.08;5.48;;;;;;;16.27;67.34;98511.06;129740;1102;22538;-57
2021/05/17 02:22:22;;;;;;;9.98;4.78;;;;;;;16.23;68.26;98513.63;129921;1101;22539;-57
2021/05/17 02:25:05;;;;;;;10.58;5.53;;;;;;;16.16;68.79;98502.28;129724;1104;22816;-57
2021/05/17 02:27:34;;;;;;;9.90;5.25;;;;;;;16.11;69.37;98474.97;129704;1102;22656;-57
2021/05/17 02:30:05;;;;;;;10.45;5.28;;;;;;;16.06;68.91;98464.11;129696;1101;23352;-57
2021/05/17 02:32:33;;;;;;;7.88;5.15;;;;;;;16.04;68.82;98454.56;129617;1104;22618;-57
2021/05/17 02:35:03;;;;;;;10.28;5.38;;;;;;;16.02;68.29;98445.83;129909;1101;22787;-58
2021/05/17 02:37:34;;;;;;;8.28;5.10;;;;;;;15.99;68.80;98444.55;129645;1104;22683;-57
2021/05/17 02:40:04;;;;;;;13.30;5.43;;;;;;;15.97;69.01;98438.57;129682;1104;22645;-58
2021/05/17 02:42:34;;;;;;;12.28;5.63;;;;;;;15.96;68.90;98444.38;129694;1101;22611;-57
2021/05/17 02:45:06;;;;;;;11.33;6.73;;;;;;;15.93;69.44;98437.58;129958;1101;23120;-57
2021/05/17 02:47:36;;;;;;;13.05;5.38;;;;;;;15.91;69.72;98445.33;129905;1101;23559;-57
2021/05/17 02:50:06;;;;;;;12.50;5.33;;;;;;;15.88;70.13;98444.02;129941;1101;22685;-57
2021/05/17 02:52:34;;;;;;;12.60;5.30;;;;;;;15.84;70.94;98443.06;129667;1104;22622;-57
2021/05/17 02:55:07;;;;;;;10.38;5.75;;;;;;;15.77;71.55;98445.45;129745;1101;22580;-57
2021/05/17 02:57:40;;;;;;;12.30;6.30;;;;;;;15.71;71.92;98446.73;129892;1101;23856;-58
2021/05/17 03:00:12;;;;;;;9.10;5.58;;;;;;;15.64;72.24;98456.55;129954;1101;22665;-58
2021/05/17 03:03:03;;;;;;;14.05;5.85;;;;;;;15.58;72.74;98447.66;129670;1101;22646;-57
2021/05/17 03:05:41;;;;;;;13.28;5.95;;;;;;;15.50;73.55;98451.94;129661;1104;23442;-58
2021/05/17 03:08:14;;;;;;;13.48;6.30;;;;;;;15.44;73.87;98449.64;129606;1104;22659;-58
2021/05/17 03:10:43;;;;;;;15.18;5.55;;;;;;;15.39;74.07;98447.86;129936;1101;22600;-58
2021/05/17 03:13:16;;;;;;;11.30;5.80;;;;;;;15.36;74.30;98445.73;129884;1101;22599;-57
2021/05/17 03:15:45;;;;;;;11.03;5.83;;;;;;;15.34;74.80;98449.92;129730;1102;23298;-57
2021/05/17 03:18:14;;;;;;;13.90;6.40;;;;;;;15.24;75.03;98434.55;129941;1101;22544;-57
2021/05/17 03:20:43;;;;;;;12.83;7.13;;;;;;;15.26;75.07;98445.20;129709;1101;22590;-57
2021/05/17 03:23:13;;;;;;;15.68;6.73;;;;;;;15.24;74.82;98439.22;129966;1101;22552;-57
2021/05/17 03:25:50;;;;;;;12.10;6.65;;;;;;;15.23;74.48;98434.85;129937;1101;22947;-57
2021/05/17 03:28:19;;;;;;;13.90;6.80;;;;;;;15.23;74.89;98423.88;129929;1101;23864;-57
2021/05/17 03:30:47;;;;;;;10.68;6.33;;;;;;;15.21;74.90;98419.52;129594;1104;22713;-57
2021/05/17 03:33:15;;;;;;;14.45;5.63;;;;;;;15.21;75.01;98410.47;130007;1101;22555;-57
2021/05/17 03:35:44;;;;;;;10.38;5.40;;;;;;;15.17;75.09;98399.30;129674;1104;23085;-57
2021/05/17 03:38:12;;;;;;;12.50;5.75;;;;;;;15.14;75.32;98380.75;129981;1101;22604;-58
2021/05/17 03:40:41;;;;;;;9.30;5.45;;;;;;;15.13;75.58;98356.38;129662;1101;23402;-59
2021/05/17 03:43:09;;;;;;;10.85;4.70;;;;;;;15.11;75.53;98353.14;129718;1102;22589;-59
2021/05/17 03:45:38;;;;;;;7.30;4.28;;;;;;;15.09;75.20;98336.98;129899;1101;22568;-59
2021/05/17 03:48:06;;;;;;;9.40;4.65;;;;;;;15.06;75.54;98329.38;129947;1101;22564;-59
2021/05/17 03:50:35;;;;;;;9.53;4.40;;;;;;;15.04;75.28;98328.89;129929;1101;22614;-59
2021/05/17 03:53:03;;;;;;;8.80;4.20;;;;;;;15.00;75.51;98332.59;129938;1101;22523;-59
2021/05/17 03:55:32;;;;;;;7.70;4.53;;;;;;;14.94;74.91;98345.63;129666;1101;23782;-59
2021/05/17 03:58:00;;;;;;;6.48;4.15;;;;;;;14.91;75.05;98353.67;129954;1101;23304;-59
2021/05/17 04:00:31;;;;;;;8.00;4.50;;;;;;;14.90;75.04;98347.38;129838;1101;22683;-58
2021/05/17 04:03:02;;;;;;;6.20;4.08;;;;;;;14.88;74.93;98341.39;129943;1101;22612;-58
2021/05/17 04:05:45;;;;;;;8.30;3.90;;;;;;;14.85;74.88;98331.88;129935;1101;23126;-58
2021/05/17 04:13:39;;;;;;;8.85;5.30;;;;;;;14.91;74.82;98331.73;129948;1101;22753;-58
2021/05/17 04:16:07;;;;;;;6.43;4.33;;;;;;;14.92;74.87;98331.42;129934;1101;22610;-58
2021/05/17 04:18:35;;;;;;;9.13;4.13;;;;;;;14.94;74.70;98331.91;129987;1101;23291;-58
2021/05/17 04:21:04;;;;;;;7.78;4.55;;;;;;;14.95;74.65;98338.21;129877;1101;22710;-58
2021/05/17 04:23:33;;;;;;;7.33;5.33;;;;;;;14.96;74.58;98331.60;129966;1101;22557;-58
2021/05/17 04:26:01;;;;;;;10.20;5.50;;;;;;;14.96;74.23;98315.14;129936;1101;23746;-58
2021/05/17 04:28:30;;;;;;;8.28;6.28;;;;;;;14.93;74.58;98322.06;129959;1101;22619;-58
2021/05/17 04:30:58;;;;;;;9.78;5.85;;;;;;;14.89;74.76;98326.55;129953;1101;22586;-58
2021/05/17 04:33:27;;;;;;;7.38;5.20;;;;;;;14.88;75.11;98327.67;129923;1101;22580;-58
2021/05/17 04:35:56;;;;;;;8.53;6.10;;;;;;;14.90;75.26;98330.11;130013;1101;23368;-58
2021/05/17 04:38:24;;;;;;;10.18;5.40;;;;;;;14.87;75.49;98328.80;129942;1101;22651;-59
2021/05/17 04:40:53;;;;;;;10.18;5.33;;;;;;;14.84;74.81;98341.23;130010;1101;22696;-58
2021/05/17 04:43:21;;;;;;;7.58;5.63;;;;;;;14.84;75.58;98343.16;129913;1101;22664;-58
2021/05/17 04:45:50;;;;;;;6.88;5.43;;;;;;;14.88;75.95;98346.06;129934;1101;23250;-59
2021/05/17 04:48:18;;;;;;;8.90;5.48;;;;;;;14.92;75.78;98363.52;129916;1101;23171;-58
2021/05/17 04:50:47;;;;;;;7.68;5.00;;;;;;;14.94;75.50;98367.57;129911;1101;22727;-58
2021/05/17 04:53:15;;;;;;;9.30;5.55;;;;;;;15.00;75.76;98365.52;129924;1101;22944;-58
2021/05/17 04:55:43;;;;;;;11.25;5.48;;;;;;;14.98;75.13;98368.56;129680;1104;22560;-58
2021/05/17 04:58:12;;;;;;;10.63;6.10;;;;;;;14.97;75.87;98355.97;129938;1101;22761;-58
2021/05/17 05:00:41;;;;;;;6.65;5.08;;;;;;;14.98;75.80;98360.34;130004;1101;22559;-59
2021/05/17 05:03:09;;;;;;;6.48;5.50;;;;;;;15.01;76.01;98365.17;129909;1101;22603;-57
2021/05/17 05:05:38;;;;;;;6.73;4.98;;;;;;;15.02;75.95;98357.75;129974;1101;22601;-58
2021/05/17 05:08:06;;;;;;;10.45;5.40;;;;;;;15.02;76.11;98350.33;129627;1104;22679;-58
2021/05/17 05:10:35;;;;;;;7.85;4.85;;;;;;;15.00;76.33;98341.64;129955;1101;22656;-58
2021/05/17 05:13:05;;;;;;;6.73;5.15;;;;;;;15.02;76.71;98339.36;129893;1101;23295;-59
2021/05/17 05:15:33;;;;;;;7.68;5.40;;;;;;;15.01;76.86;98336.93;129738;1101;22589;-59
2021/05/17 05:18:02;;;;;;;8.23;6.13;;;;;;;15.04;77.10;98325.33;129896;1101;22635;-58
2021/05/17 05:20:31;;;;;;;11.53;5.75;;;;;;;15.10;76.92;98326.82;129965;1101;22704;-59
2021/05/17 05:23:01;;;;;;;7.70;5.65;;;;;;;15.13;77.08;98316.03;129934;1101;22571;-58
2021/05/17 05:28:20;;;;;;;9.10;5.60;;;;;;;15.15;77.04;98305.52;129942;1101;22585;-58
2021/05/17 05:31:02;;;;;;;10.45;5.73;;;;;;;15.16;76.90;98304.40;129887;1101;23197;-58
2021/05/17 05:33:31;;;;;;;8.93;6.23;;;;;;;15.20;77.04;98288.92;129956;1101;22610;-58
2021/05/17 05:35:59;;;;;;;7.40;6.10;;;;;;;15.19;77.24;98289.24;129924;1101;22621;-58
2021/05/17 05:38:28;;;;;;;8.65;6.40;;;;;;;15.19;77.46;98291.98;129943;1101;22656;-59
2021/05/17 05:40:56;;;;;;;6.73;5.48;;;;;;;15.17;77.64;98283.26;129914;1101;23134;-59
2021/05/17 05:43:25;;;;;;;9.90;6.23;;;;;;;15.18;77.88;98279.39;129891;1101;22573;-59
2021/05/17 05:45:53;;;;;;;7.33;4.98;;;;;;;15.20;77.48;98277.14;129942;1101;23409;-59
2021/05/17 05:48:21;;;;;;;9.05;5.08;;;;;;;15.25;77.19;98265.22;129919;1101;22625;-59
2021/05/17 05:50:50;;;;;;;8.78;4.90;;;;;;;15.29;77.04;98267.02;129883;1101;22613;-59
2021/05/17 05:53:19;;;;;;;9.93;5.67;;;;;;;15.34;76.98;98269.59;129958;1101;22556;-59
2021/05/17 05:55:47;;;;;;;9.48;5.40;;;;;;;15.37;77.29;98259.91;129822;1101;25225;-59
2021/05/17 05:58:15;;;;;;;9.43;4.45;;;;;;;15.40;76.74;98254.59;129952;1101;22725;-59
2021/05/17 06:00:44;;;;;;;7.07;4.73;;;;;;;15.43;76.59;98248.48;129924;1101;22674;-59
2021/05/17 06:03:12;;;;;;;5.50;4.35;;;;;;;15.46;76.17;98247.00;129907;1101;22687;-59
2021/05/17 06:05:41;;;;;;;7.43;4.68;;;;;;;15.45;76.02;98245.38;129618;1104;22974;-59
2021/05/17 06:08:09;;;;;;;6.60;4.40;;;;;;;15.44;75.65;98241.83;129616;1104;23344;-59
2021/05/17 06:10:39;;;;;;;8.00;4.70;;;;;;;15.43;75.71;98228.45;129640;1104;23203;-59
2021/05/17 06:13:08;;;;;;;8.68;4.95;;;;;;;15.42;76.30;98232.33;129970;1101;22552;-59
2021/05/17 06:15:40;;;;;;;8.28;5.90;;;;;;;15.40;76.13;98227.16;129862;1101;22546;-59
2021/05/17 06:18:08;;;;;;;15.57;6.13;;;;;;;15.39;76.49;98225.53;129895;1101;22614;-60
2021/05/17 06:20:38;;;;;;;7.48;5.15;;;;;;;15.38;76.67;98218.42;129856;1101;22600;-60
2021/05/17 06:23:12;;;;;;;7.50;5.40;;;;;;;15.38;76.58;98212.94;129912;1101;23629;-61
2021/05/17 06:25:42;;;;;;;8.23;5.23;;;;;;;15.37;76.32;98194.86;129866;1101;22642;-60
2021/05/17 06:28:10;;;;;;;7.23;4.55;;;;;;;15.38;76.32;98185.49;129916;1101;22642;-61
2021/05/17 06:30:45;;;;;;;8.58;5.13;;;;;;;15.38;76.24;98177.27;129934;1101;22782;-61
2021/05/17 06:33:16;;;;;;;7.58;4.93;;;;;;;15.34;76.36;98165.30;129669;1104;22618;-61
2021/05/17 06:35:46;;;;;;;12.55;4.98;;;;;;;15.41;75.98;98173.88;129757;1102;22595;-61
2021/05/17 06:38:15;;;;;;;12.95;5.20;;;;;;;15.45;76.49;98179.51;129649;1104;22558;-61
2021/05/17 06:40:43;;;;;;;7.13;5.03;;;;;;;15.49;75.94;98186.78;126946;1096;27151;-61
2021/05/17 06:43:12;;;;;;;6.90;5.13;;;;;;;15.54;76.04;98207.79;129851;1101;23467;-60
2021/05/17 06:45:47;;;;;;;7.85;4.98;;;;;;;15.55;76.05;98220.42;129958;1101;23260;-61
2021/05/17 06:48:15;;;;;;;8.73;4.70;;;;;;;15.59;75.79;98223.30;129885;1101;22699;-62
2021/05/17 06:50:44;;;;;;;6.33;5.20;;;;;;;15.65;75.58;98231.07;129706;1101;22713;-63
2021/05/17 06:53:13;;;;;;;5.73;4.53;;;;;;;15.68;75.70;98237.86;129899;1101;22618;-62
2021/05/17 06:55:58;;;;;;;12.48;6.58;;;;;;;15.69;75.60;98229.30;129688;1101;22571;-63
2021/05/17 06:58:34;;;;;;;7.10;4.73;;;;;;;15.71;75.50;98229.80;129645;1101;23134;-63
2021/05/17 07:01:03;;;;;;;5.55;4.60;;;;;;;15.73;74.97;98235.74;129954;1101;22567;-63
2021/05/17 07:03:31;;;;;;;6.50;5.10;;;;;;;15.75;75.32;98238.98;129918;1101;22639;-63
2021/05/17 07:05:59;;;;;;;7.43;5.45;;;;;;;15.81;75.42;98250.63;129870;1101;22638;-62
2021/05/17 07:14:02;;;;;;;13.47;6.03;;;;;;;16.07;75.41;98245.11;129927;1101;22706;-62
2021/05/17 07:16:30;;;;;;;7.00;6.03;;;;;;;16.15;75.50;98239.63;129878;1101;22640;-63
2021/05/17 07:18:59;;;;;;;12.35;7.03;;;;;;;16.25;75.45;98232.97;129974;1101;22562;-62
2021/05/17 07:24:14;;;;;;;11.20;7.25;;;;;;;16.38;74.63;98234.71;129897;1101;22731;-63
2021/05/17 07:26:43;;;;;;;17.78;8.38;;;;;;;16.45;74.60;98232.25;129945;1101;23099;-62
2021/05/17 07:29:11;;;;;;;7.65;6.78;;;;;;;16.49;74.13;98229.66;129916;1101;22696;-62
2021/05/17 07:31:40;;;;;;;13.38;7.38;;;;;;;16.53;73.87;98227.88;129928;1101;22605;-63
2021/05/17 07:34:08;;;;;;;13.43;6.03;;;;;;;16.56;73.75;98228.03;129908;1101;22661;-62
2021/05/17 07:36:51;;;;;;;8.80;6.30;;;;;;;16.62;73.63;98212.14;129965;1101;22665;-63
2021/05/17 07:39:19;;;;;;;7.83;5.73;;;;;;;16.64;73.64;98209.09;129417;1101;23108;-58
2021/05/17 07:41:48;;;;;;;7.70;5.18;;;;;;;16.71;73.22;98220.41;125407;1101;23023;-57
2021/05/17 07:44:16;;;;;;;11.03;5.78;;;;;;;16.75;73.50;98232.34;129862;1101;23485;-58
2021/05/17 07:46:45;;;;;;;9.38;5.45;;;;;;;16.84;73.27;98230.39;129723;1104;22555;-58
2021/05/17 07:49:16;;;;;;;11.50;5.50;;;;;;;16.92;73.18;98235.84;129911;1101;23330;-59
2021/05/17 07:51:45;;;;;;;6.28;4.78;;;;;;;17.04;73.25;98235.13;129934;1101;22680;-59
2021/05/17 07:54:18;;;;;;;8.05;5.38;;;;;;;17.17;73.14;98253.34;129601;1101;22603;-58
2021/05/17 07:56:47;;;;;;;10.53;4.28;;;;;;;17.32;72.51;98247.27;129950;1101;22712;-57
2021/05/17 07:59:15;;;;;;;8.38;4.90;;;;;;;17.44;72.19;98254.83;129919;1101;22808;-58
2021/05/17 08:01:43;;;;;;;6.70;4.68;;;;;;;17.51;70.11;98257.05;129949;1101;22567;-57
2021/05/17 08:04:13;;;;;;;6.70;4.80;;;;;;;17.55;70.52;98246.98;130004;1101;22550;-58
2021/05/17 08:06:42;;;;;;;4.20;3.80;;;;;;;17.60;70.59;98244.81;129926;1101;22686;-59
2021/05/17 08:09:11;;;;;;;6.88;4.83;;;;;;;17.68;70.01;98242.38;129959;1101;22652;-58
2021/05/17 08:11:39;;;;;;;7.20;3.93;;;;;;;17.73;69.80;98240.23;129983;1101;22679;-58
2021/05/17 08:14:08;;;;;;;8.83;3.83;;;;;;;17.80;69.69;98247.95;130011;1101;23187;-58
2021/05/17 08:16:37;;;;;;;5.13;3.70;;;;;;;17.86;69.39;98252.94;129918;1101;23002;-59
2021/05/17 08:19:05;;;;;;;4.95;4.00;;;;;;;17.93;69.36;98264.20;129969;1101;23277;-59
2021/05/17 08:21:35;;;;;;;6.85;3.40;;;;;;;17.98;68.03;98258.50;129912;1101;22594;-59
2021/05/17 08:24:05;;;;;;;5.45;3.38;;;;;;;18.03;68.17;98260.25;129967;1101;23736;-58
2021/05/17 08:26:33;;;;;;;7.00;3.25;;;;;;;18.07;68.03;98260.36;129981;1101;22578;-59
2021/05/17 08:29:03;;;;;;;6.48;3.50;;;;;;;18.10;67.88;98260.50;129977;1101;22525;-59
2021/05/17 08:31:31;;;;;;;5.20;3.63;;;;;;;18.16;68.29;98263.87;129872;1101;22569;-59
2021/05/17 08:34:00;;;;;;;4.95;3.40;;;;;;;18.22;68.13;98268.02;130039;1101;22565;-59
2021/05/17 08:36:28;;;;;;;4.35;3.43;;;;;;;18.26;68.13;98268.95;129955;1101;23554;-60
2021/05/17 08:38:56;;;;;;;6.23;3.55;;;;;;;18.34;67.83;98282.65;129994;1101;22565;-59
2021/05/17 08:41:25;;;;;;;9.20;3.83;;;;;;;18.37;68.18;98270.94;125687;1101;22785;-59
2021/05/17 08:43:53;;;;;;;6.58;3.80;;;;;;;18.42;68.12;98283.72;125124;1096;22751;-59
2021/05/17 08:46:23;;;;;;;6.60;4.00;;;;;;;18.44;67.26;98281.44;129661;1101;22791;-58
2021/05/17 08:48:52;;;;;;;6.73;4.00;;;;;;;18.44;67.63;98286.14;129959;1101;22575;-58
2021/05/17 08:51:23;;;;;;;6.55;4.18;;;;;;;18.48;68.12;98282.34;129920;1101;23280;-58
2021/05/17 08:53:53;;;;;;;4.60;3.58;;;;;;;18.54;68.13;98296.74;129706;1101;22524;-59
2021/05/17 08:56:26;;;;;;;11.50;3.90;;;;;;;18.62;67.70;98288.39;129700;1102;22571;-59
2021/05/17 08:58:58;;;;;;;5.90;3.88;;;;;;;18.69;67.19;98290.61;129933;1101;23465;-57
2021/05/17 09:01:27;;;;;;;10.95;4.45;;;;;;;18.75;67.46;98291.21;130003;1101;22647;-58
2021/05/17 09:04:00;;;;;;;9.55;3.93;;;;;;;18.82;66.68;98291.44;129680;1104;22511;-58
2021/05/17 09:06:41;;;;;;;6.65;3.55;;;;;;;18.85;65.74;98274.20;130014;1101;22564;-58
2021/05/17 09:09:35;;;;;;;9.40;3.47;;;;;;;18.87;66.66;98280.19;129897;1101;22601;-58
2021/05/17 09:12:05;;;;;;;7.87;3.20;;;;;;;18.93;66.21;98292.60;129704;1104;22553;-58
2021/05/17 09:14:35;;;;;;;7.58;3.25;;;;;;;18.95;65.63;98295.83;129918;1101;22695;-58
2021/05/17 09:17:08;;;;;;;3.47;3.10;;;;;;;18.96;65.19;98300.20;129942;1101;23576;-58
2021/05/17 09:19:42;;;;;;;5.43;2.83;;;;;;;18.96;65.82;98297.44;130003;1101;23496;-58
2021/05/17 09:22:14;;;;;;;5.60;3.37;;;;;;;18.97;65.56;98299.06;129951;1101;23571;-58
2021/05/17 09:24:44;;;;;;;3.55;2.73;;;;;;;18.95;65.20;98302.16;129689;1102;22570;-58
2021/05/17 09:27:21;;;;;;;3.85;2.75;;;;;;;18.94;65.02;98305.26;129975;1101;22671;-58
2021/05/17 09:29:50;;;;;;;;;;;;;;;18.90;65.04;98320.91;129978;1101;22612;-58
2021/05/17 09:32:26;;;;;;;3.83;2.48;;;;;;;18.82;65.00;98316.28;129753;1103;21305;-58
2021/05/17 09:35:03;;;;;;;4.00;3.40;;;;;;;18.78;65.47;98310.63;129960;1101;22707;-58
2021/05/17 09:37:50;;;;;;;5.80;3.80;;;;;;;18.78;65.72;98307.06;130025;1101;22612;-58
2021/05/17 09:40:26;;;;;;;4.40;2.95;;;;;;;18.77;65.18;98310.97;129632;1104;23394;-58
2021/05/17 09:43:07;;;;;;;7.35;3.15;;;;;;;18.77;65.60;98316.48;129979;1101;22616;-58
2021/05/17 09:45:46;;;;;;;4.50;3.10;;;;;;;18.77;65.17;98310.97;130024;1101;22540;-58
2021/05/17 09:48:22;;;;;;;4.05;3.18;;;;;;;18.74;65.05;98322.70;129959;1101;22579;-60
2021/05/17 09:51:07;;;;;;;8.03;3.20;;;;;;;18.68;65.13;98325.67;130035;1101;22576;-58
2021/05/17 09:53:39;;;;;;;6.15;3.13;;;;;;;18.62;65.25;98329.78;130039;1101;23268;-59
2021/05/17 09:56:15;;;;;;;6.48;3.63;;;;;;;18.57;65.25;98332.73;130036;1101;22563;-58
2021/05/17 09:58:44;;;;;;;5.20;3.95;;;;;;;18.50;65.67;98340.74;130009;1101;23372;-58
2021/05/17 10:01:17;;;;;;;6.33;3.93;;;;;;;18.33;66.06;98335.38;129955;1101;22575;-59
2021/05/17 10:03:47;;;;;;;6.60;3.58;;;;;;;18.18;67.12;98330.51;130023;1101;22563;-59
2021/05/17 10:06:24;;;;;;;5.90;3.30;;;;;;;18.08;67.48;98325.38;129996;1101;22564;-58
2021/05/17 10:08:54;;;;;;;4.55;2.90;;;;;;;18.01;68.40;98321.23;130061;1101;23312;-59
2021/05/17 10:11:23;;;;;;;9.88;3.43;;;;;;;17.93;69.10;98294.52;129943;1101;22569;-58
2021/05/17 10:13:51;;;;;;;5.68;3.30;;;;;;;17.76;70.38;98267.09;129979;1101;22557;-58
2021/05/17 10:16:20;;;;;;;7.13;3.63;;;;;;;17.52;71.36;98229.17;130022;1101;22586;-59
2021/05/17 10:18:49;;;;;;;6.25;3.30;;;;;;;17.30;72.87;98183.50;130046;1101;22566;-59
2021/05/17 10:21:20;;;;;;;5.35;4.03;;;;;;;17.14;73.92;98148.64;129984;1101;22561;-59
2021/05/17 10:23:49;;;;;;;7.05;4.08;;;;;;;17.00;74.72;98124.13;130046;1101;22535;-58
2021/05/17 10:26:25;;;;;;;6.00;3.70;;;;;;;16.89;75.79;98104.44;130003;1101;23365;-59
2021/05/17 10:29:00;;;;;;;5.58;4.45;;;;;;;16.76;76.38;98096.43;129985;1101;23062;-58
2021/05/17 10:31:30;;;;;;;9.73;5.25;;;;;;;16.66;76.61;98121.58;129960;1101;23792;-58
2021/05/17 10:34:06;;;;;;;7.05;6.03;;;;;;;16.61;76.91;98123.34;130044;1101;22550;-59
2021/05/17 10:36:54;;;;;;;6.40;5.18;;;;;;;16.58;77.19;98107.53;129997;1101;22598;-59
2021/05/17 10:39:45;;;;;;;9.45;4.68;;;;;;;16.52;77.58;98069.54;130031;1101;23248;-58
2021/05/17 10:47:02;;;;;;;9.47;4.37;;;;;;;16.51;77.75;98137.47;125452;1101;22819;-59
2021/05/17 10:49:35;;;;;;;5.78;4.10;;;;;;;16.55;78.17;98129.38;125534;1101;22923;-59
2021/05/17 10:52:06;;;;;;;4.50;3.78;;;;;;;16.58;78.33;98129.52;125546;1101;22760;-59
2021/05/17 10:54:41;;;;;;;6.08;4.08;;;;;;;16.60;78.16;98135.47;130028;1101;22546;-59
2021/05/17 10:57:21;;;;;;;10.45;3.70;;;;;;;16.66;77.92;98149.89;129973;1101;22580;-59
2021/05/17 11:02:39;;;;;;;4.35;3.28;;;;;;;16.80;78.08;98149.65;129928;1101;22649;-59
2021/05/17 11:05:20;;;;;;;10.00;3.83;;;;;;;16.89;77.91;98150.39;129982;1101;22533;-59
2021/05/17 11:07:55;;;;;;;7.15;3.08;;;;;;;16.98;76.88;98150.36;129971;1101;23265;-59
2021/05/17 11:10:45;;;;;;;5.95;2.88;;;;;;;17.05;77.30;98137.67;129960;1101;22568;-59
2021/05/17 11:13:21;;;;;;;3.30;3.00;;;;;;;17.17;77.03;98137.74;129884;1101;22624;-59
2021/05/17 11:16:09;;;;;;;4.50;2.73;;;;;;;17.29;75.36;98142.54;129999;1101;22525;-59
2021/05/17 11:18:48;;;;;;;8.25;3.50;;;;;;;17.34;76.04;98156.09;129937;1101;22533;-59
2021/05/17 11:21:43;;;;;;;3.30;2.65;;;;;;;17.37;74.99;98155.42;129979;1101;22557;-59
2021/05/17 11:24:12;;;;;;;5.15;3.80;;;;;;;17.45;75.66;98148.25;129942;1101;22575;-59
2021/05/17 11:26:55;;;;;;;5.43;3.40;;;;;;;17.53;75.26;98148.16;129943;1101;22548;-57
2021/05/17 11:29:35;;;;;;;5.45;3.10;;;;;;;17.60;74.08;98162.19;129908;1101;22571;-57
2021/05/17 11:32:20;;;;;;;4.95;3.53;;;;;;;17.61;74.22;98160.23;130019;1101;22576;-59
2021/05/17 11:35:02;;;;;;;6.08;3.30;;;;;;;17.65;74.34;98158.45;129943;1101;22548;-59
2021/05/17 11:37:33;;;;;;;4.48;3.58;;;;;;;17.71;74.09;98162.63;129913;1101;22523;-59
2021/05/17 11:40:28;;;;;;;3.93;3.15;;;;;;;17.74;73.71;98163.91;129858;1101;23431;-64
2021/05/17 11:43:00;;;;;;;3.70;2.95;;;;;;;17.76;73.49;98175.38;129934;1101;23280;-63
2021/05/17 11:45:28;;;;;;;4.28;2.68;;;;;;;17.76;73.42;98183.63;129985;1101;23533;-63
2021/05/17 11:48:00;;;;;;;8.50;4.58;;;;;;;17.70;73.07;98183.05;129891;1101;22682;-64
2021/05/17 11:50:29;;;;;;;6.10;2.83;;;;;;;17.66;72.83;98179.35;129913;1101;22632;-64
2021/05/17 11:52:58;;;;;;;3.78;2.75;;;;;;;17.63;73.00;98177.23;129982;1101;22508;-64
2021/05/17 11:55:26;;;;;;;4.38;2.95;;;;;;;17.59;73.13;98168.86;129917;1101;22566;-64
2021/05/17 11:57:55;;;;;;;4.83;3.13;;;;;;;17.54;72.92;98187.53;129910;1101;22539;-64
2021/05/17 12:00:27;;;;;;;5.03;2.63;;;;;;;17.42;73.07;98184.71;129938;1101;22619;-64
2021/05/17 12:02:56;;;;;;;3.90;2.68;;;;;;;17.32;73.66;98183.95;129925;1101;23296;-61
2021/05/17 12:05:25;;;;;;;3.43;2.65;;;;;;;17.26;73.83;98182.55;129901;1101;22682;-61
2021/05/17 12:07:55;;;;;;;3.45;2.88;;;;;;;17.22;74.43;98191.80;130015;1101;23367;-61